createdAt,value
2018-06-23T00:01:51.197Z,15.85
2018-06-23T00:04:20.622Z,16.01
2018-06-23T00:06:50.138Z,16.00
2018-06-23T00:09:19.706Z,15.75
2018-06-23T00:11:49.194Z,15.59
2018-06-23T00:14:18.584Z,15.47
2018-06-23T00:16:48.161Z,15.53
2018-06-23T00:19:17.830Z,15.56
2018-06-23T00:21:47.248Z,15.48
2018-06-23T00:24:16.774Z,15.51
2018-06-23T00:26:46.227Z,15.39
2018-06-23T00:29:15.753Z,15.50
2018-06-23T00:31:45.336Z,15.42
2018-06-23T00:34:14.737Z,15.33
2018-06-23T00:36:44.176Z,15.17
2018-06-23T00:39:13.736Z,15.30
2018-06-23T00:41:43.160Z,15.15
2018-06-23T00:44:12.641Z,15.06
2018-06-23T00:46:42.206Z,14.93
2018-06-23T00:49:11.605Z,14.98
2018-06-23T00:51:41.011Z,14.90
2018-06-23T00:54:10.432Z,14.88
2018-06-23T00:56:39.949Z,14.89
2018-06-23T00:59:26.345Z,14.66
2018-06-23T01:01:55.797Z,14.54
2018-06-23T01:04:25.224Z,14.48
2018-06-23T01:06:54.766Z,14.43
2018-06-23T01:09:24.314Z,14.35
2018-06-23T01:11:53.770Z,14.27
2018-06-23T01:14:23.167Z,14.24
2018-06-23T01:16:52.638Z,14.25
2018-06-23T01:19:22.109Z,14.32
2018-06-23T01:21:51.518Z,14.41
2018-06-23T01:24:20.982Z,14.28
2018-06-23T01:26:50.568Z,14.28
2018-06-23T01:29:20.008Z,14.35
2018-06-23T01:31:49.426Z,14.16
2018-06-23T01:34:19.477Z,14.28
2018-06-23T01:36:49.822Z,14.21
2018-06-23T01:39:19.282Z,14.21
2018-06-23T01:41:48.702Z,14.17
2018-06-23T01:44:18.103Z,14.13
2018-06-23T01:46:47.700Z,14.21
2018-06-23T01:49:17.135Z,14.20
2018-06-23T01:51:46.522Z,14.16
2018-06-23T01:54:16.324Z,14.11
2018-06-23T01:56:45.818Z,14.03
2018-06-23T01:59:15.273Z,14.09
2018-06-23T02:01:44.704Z,14.05
2018-06-23T02:04:14.318Z,14.07
2018-06-23T02:06:43.937Z,13.93
2018-06-23T02:09:13.371Z,13.90
2018-06-23T02:11:42.838Z,13.85
2018-06-23T02:14:17.504Z,14.00
2018-06-23T02:16:52.186Z,13.91
2018-06-23T02:19:26.755Z,13.94
2018-06-23T02:22:01.189Z,13.82
2018-06-23T02:24:35.901Z,13.86
2018-06-23T02:27:10.637Z,13.82
2018-06-23T02:29:45.275Z,13.94
2018-06-23T02:32:19.941Z,13.86
2018-06-23T02:34:54.635Z,13.86
2018-06-23T02:37:24.092Z,13.68
2018-06-23T02:39:53.535Z,13.65
2018-06-23T02:42:23.220Z,13.64
2018-06-23T02:44:52.651Z,13.65
2018-06-23T02:47:22.073Z,13.59
2018-06-23T02:49:55.524Z,13.65
2018-06-23T02:52:24.967Z,13.53
2018-06-23T02:54:54.726Z,13.53
2018-06-23T02:57:24.243Z,13.60
2018-06-23T02:59:53.779Z,13.53
2018-06-23T03:02:23.422Z,13.48
2018-06-23T03:04:52.836Z,13.47
2018-06-23T03:07:22.376Z,13.55
2018-06-23T03:09:51.843Z,13.43
2018-06-23T03:12:21.257Z,13.46
2018-06-23T03:14:50.770Z,13.31
2018-06-23T03:17:20.543Z,13.37
2018-06-23T03:19:52.011Z,13.42
2018-06-23T03:22:21.457Z,13.51
2018-06-23T03:24:50.847Z,13.50
2018-06-23T03:27:20.351Z,13.50
2018-06-23T03:29:49.859Z,13.48
2018-06-23T03:32:19.290Z,13.43
2018-06-23T03:34:48.676Z,13.29
2018-06-23T03:37:18.187Z,13.37
2018-06-23T03:39:47.662Z,13.38
2018-06-23T03:42:17.099Z,13.28
2018-06-23T03:44:46.591Z,13.25
2018-06-23T03:47:16.032Z,13.21
2018-06-23T03:49:45.436Z,13.22
2018-06-23T03:52:14.570Z,13.28
2018-06-23T03:54:44.106Z,13.33
2018-06-23T03:57:13.537Z,13.28
2018-06-23T03:59:42.958Z,13.19
2018-06-23T04:02:12.422Z,13.29
2018-06-23T04:04:41.907Z,13.31
2018-06-23T04:07:11.345Z,13.20
2018-06-23T04:09:40.771Z,13.69
2018-06-23T04:12:10.285Z,13.64
2018-06-23T04:14:39.861Z,13.79
2018-06-23T04:17:09.388Z,14.01
2018-06-23T04:19:38.827Z,14.20
2018-06-23T04:22:10.095Z,14.23
2018-06-23T04:24:42.449Z,14.31
2018-06-23T04:27:12.555Z,14.36
2018-06-23T04:29:43.125Z,14.37
2018-06-23T04:32:13.526Z,14.34
2018-06-23T04:34:42.985Z,14.33
2018-06-23T04:37:12.439Z,14.42
2018-06-23T04:39:42.002Z,14.43
2018-06-23T04:42:11.470Z,14.54
2018-06-23T04:44:41.296Z,14.57
2018-06-23T04:47:11.589Z,14.72
2018-06-23T04:49:41.342Z,14.96
2018-06-23T04:52:10.732Z,15.02
2018-06-23T04:54:42.362Z,14.89
2018-06-23T04:57:11.787Z,15.04
2018-06-23T04:59:41.221Z,15.13
2018-06-23T05:02:12.906Z,15.24
2018-06-23T05:04:42.415Z,14.93
2018-06-23T05:07:14.792Z,15.04
2018-06-23T05:09:44.295Z,15.48
2018-06-23T05:12:13.723Z,15.22
2018-06-23T05:14:43.200Z,15.10
2018-06-23T05:17:12.788Z,14.79
2018-06-23T05:19:42.374Z,14.94
2018-06-23T05:22:11.888Z,15.03
2018-06-23T05:24:41.305Z,15.07
2018-06-23T05:27:10.782Z,14.95
2018-06-23T05:29:40.179Z,15.10
2018-06-23T05:32:09.708Z,14.90
2018-06-23T05:34:39.119Z,15.11
2018-06-23T05:37:09.839Z,15.17
2018-06-23T05:39:39.784Z,15.07
2018-06-23T05:42:09.265Z,15.25
2018-06-23T05:44:38.670Z,15.18
2018-06-23T05:47:08.266Z,15.21
2018-06-23T05:49:37.913Z,15.32
2018-06-23T05:52:07.350Z,15.57
2018-06-23T05:54:36.813Z,15.40
2018-06-23T05:57:06.637Z,15.51
2018-06-23T05:59:36.163Z,15.42
2018-06-23T06:02:07.000Z,15.13
2018-06-23T06:04:37.880Z,15.08
2018-06-23T06:07:07.431Z,15.17
2018-06-23T06:09:37.348Z,15.20
2018-06-23T06:12:06.986Z,15.14
2018-06-23T06:14:39.579Z,14.79
2018-06-23T06:17:36.709Z,14.61
2018-06-23T06:20:12.726Z,14.82
2018-06-23T06:22:44.475Z,15.19
2018-06-23T06:25:14.402Z,15.10
2018-06-23T06:27:43.818Z,15.19
2018-06-23T06:30:13.434Z,15.48
2018-06-23T06:32:42.962Z,15.76
2018-06-23T06:35:12.418Z,15.80
2018-06-23T06:37:42.937Z,15.95
2018-06-23T06:40:12.467Z,16.18
2018-06-23T06:42:42.207Z,16.71
2018-06-23T06:45:11.649Z,16.54
2018-06-23T06:47:41.083Z,16.89
2018-06-23T06:50:10.649Z,17.11
2018-06-23T06:52:40.261Z,17.19
2018-06-23T06:55:12.655Z,17.18
2018-06-23T06:57:44.518Z,16.83
2018-06-23T07:00:15.266Z,17.00
2018-06-23T07:02:44.724Z,17.36
2018-06-23T07:05:14.200Z,17.58
2018-06-23T07:07:43.823Z,17.86
2018-06-23T07:10:13.338Z,18.02
2018-06-23T07:12:42.745Z,18.27
2018-06-23T07:15:15.412Z,18.26
2018-06-23T07:17:45.267Z,18.58
2018-06-23T07:20:15.397Z,18.81
2018-06-23T07:22:44.997Z,18.57
2018-06-23T07:25:14.583Z,18.81
2018-06-23T07:27:44.286Z,18.60
2018-06-23T07:30:17.065Z,18.79
2018-06-23T07:32:46.545Z,18.67
2018-06-23T07:35:16.217Z,18.57
2018-06-23T07:37:45.589Z,18.13
2018-06-23T07:40:15.060Z,18.51
2018-06-23T07:42:44.482Z,18.66
2018-06-23T07:45:14.014Z,18.94
2018-06-23T07:47:43.412Z,19.00
2018-06-23T07:50:12.875Z,19.07
2018-06-23T07:52:42.293Z,19.60
2018-06-23T07:55:11.840Z,19.16
2018-06-23T07:57:41.515Z,18.81
2018-06-23T08:00:10.939Z,18.49
2018-06-23T08:02:40.358Z,18.49
2018-06-23T08:05:09.968Z,18.17
2018-06-23T08:07:39.489Z,18.12
2018-06-23T08:10:08.991Z,17.80
2018-06-23T08:12:38.543Z,18.05
2018-06-23T08:15:08.135Z,18.47
2018-06-23T08:17:37.624Z,18.43
2018-06-23T08:20:07.196Z,18.69
2018-06-23T08:22:36.666Z,19.56
2018-06-23T08:25:06.471Z,19.61
2018-06-23T08:27:35.882Z,20.07
2018-06-23T08:30:05.761Z,20.41
2018-06-23T08:32:35.322Z,20.46
2018-06-23T08:35:05.065Z,19.96
2018-06-23T08:37:34.575Z,19.26
2018-06-23T08:40:04.045Z,18.63
2018-06-23T08:42:33.711Z,18.27
2018-06-23T08:45:03.279Z,18.67
2018-06-23T08:47:32.777Z,18.48
2018-06-23T08:50:02.227Z,18.42
2018-06-23T08:52:32.018Z,18.01
2018-06-23T08:55:01.485Z,17.83
2018-06-23T08:57:30.941Z,18.06
2018-06-23T09:00:00.484Z,19.04
2018-06-23T09:02:30.126Z,18.66
2018-06-23T09:04:59.657Z,18.82
2018-06-23T09:07:29.092Z,18.75
2018-06-23T09:09:58.769Z,18.76
2018-06-23T09:12:28.462Z,18.82
2018-06-23T09:14:57.979Z,18.82
2018-06-23T09:17:28.449Z,18.84
2018-06-23T09:19:58.024Z,18.38
2018-06-23T09:22:27.550Z,18.65
2018-06-23T09:24:56.999Z,18.76
2018-06-23T09:27:26.502Z,19.03
2018-06-23T09:29:56.109Z,18.94
2018-06-23T09:32:25.674Z,18.98
2018-06-23T09:34:55.119Z,18.94
2018-06-23T09:37:24.627Z,18.83
2018-06-23T09:39:55.252Z,19.00
2018-06-23T09:42:24.914Z,19.59
2018-06-23T09:44:54.402Z,19.30
2018-06-23T09:47:23.857Z,19.62
2018-06-23T09:49:53.387Z,19.72
2018-06-23T09:52:22.877Z,20.07
2018-06-23T09:54:52.376Z,19.97
2018-06-23T09:57:21.571Z,19.39
2018-06-23T09:59:51.176Z,19.80
2018-06-23T10:02:20.777Z,19.64
2018-06-23T10:04:50.157Z,19.65
2018-06-23T10:07:19.800Z,19.90
2018-06-23T10:09:49.284Z,19.90
2018-06-23T10:12:18.760Z,19.97
2018-06-23T10:14:48.234Z,20.01
2018-06-23T10:17:17.787Z,20.43
2018-06-23T10:19:47.484Z,20.32
2018-06-23T10:22:17.102Z,20.63
2018-06-23T10:24:46.608Z,20.19
2018-06-23T10:27:16.298Z,20.73
2018-06-23T10:29:45.808Z,20.62
2018-06-23T10:32:15.275Z,20.66
2018-06-23T10:34:44.774Z,21.08
2018-06-23T10:37:14.352Z,21.40
2018-06-23T10:39:43.808Z,21.21
2018-06-23T10:42:13.788Z,21.02
2018-06-23T10:44:43.300Z,20.96
2018-06-23T10:47:12.959Z,20.60
2018-06-23T10:49:42.414Z,20.79
2018-06-23T10:52:11.903Z,20.71
2018-06-23T10:54:41.447Z,20.32
2018-06-23T10:57:11.156Z,19.93
2018-06-23T10:59:41.062Z,19.99
2018-06-23T11:02:10.577Z,20.28
2018-06-23T11:04:40.187Z,20.55
2018-06-23T11:07:09.730Z,20.52
2018-06-23T11:09:39.798Z,19.99
2018-06-23T11:12:09.228Z,19.44
2018-06-23T11:14:38.686Z,19.40
2018-06-23T11:17:08.582Z,19.34
2018-06-23T11:19:38.174Z,19.26
2018-06-23T11:22:07.638Z,19.50
2018-06-23T11:24:37.381Z,19.65
2018-06-23T11:27:07.141Z,19.59
2018-06-23T11:29:36.796Z,19.44
2018-06-23T11:32:08.079Z,19.48
2018-06-23T11:34:37.549Z,19.93
2018-06-23T11:37:07.082Z,20.49
2018-06-23T11:39:36.625Z,20.96
2018-06-23T11:42:06.269Z,20.88
2018-06-23T11:44:35.829Z,20.64
2018-06-23T11:47:05.811Z,21.06
2018-06-23T11:49:35.304Z,20.64
2018-06-23T11:52:06.607Z,19.84
2018-06-23T11:54:36.085Z,19.82
2018-06-23T11:57:05.710Z,20.11
2018-06-23T11:59:35.401Z,19.87
2018-06-23T12:02:04.946Z,20.03
2018-06-23T12:04:34.649Z,20.54
2018-06-23T12:07:04.187Z,21.11
2018-06-23T12:09:33.876Z,21.67
2018-06-23T12:12:03.449Z,21.87
2018-06-23T12:14:33.099Z,21.87
2018-06-23T12:17:02.711Z,22.29
2018-06-23T12:19:32.021Z,22.19
2018-06-23T12:22:01.535Z,22.07
2018-06-23T12:24:31.156Z,22.01
2018-06-23T12:27:00.696Z,21.66
2018-06-23T12:29:30.265Z,21.32
2018-06-23T12:31:59.729Z,21.46
2018-06-23T12:34:29.287Z,21.46
2018-06-23T12:36:58.653Z,21.57
2018-06-23T12:39:28.163Z,21.53
2018-06-23T12:41:57.767Z,21.91
2018-06-23T12:44:26.967Z,21.43
2018-06-23T12:46:56.633Z,21.97
2018-06-23T12:49:26.106Z,21.93
2018-06-23T12:51:55.546Z,22.27
2018-06-23T12:54:25.052Z,21.51
2018-06-23T12:56:54.685Z,21.63
2018-06-23T12:59:24.171Z,23.65
2018-06-23T13:01:53.860Z,24.39
2018-06-23T13:04:23.340Z,24.41
2018-06-23T13:06:52.808Z,24.35
2018-06-23T13:09:22.366Z,23.79
2018-06-23T13:11:51.878Z,25.45
2018-06-23T13:14:21.514Z,26.38
2018-06-23T13:16:51.073Z,29.68
2018-06-23T13:19:20.638Z,29.91
2018-06-23T13:21:50.133Z,30.55
2018-06-23T13:24:19.628Z,33.09
2018-06-23T13:26:49.060Z,31.19
2018-06-23T13:29:18.535Z,33.04
2018-06-23T13:31:48.029Z,32.98
2018-06-23T13:34:17.602Z,31.45
2018-06-23T13:36:47.069Z,29.58
2018-06-23T13:39:16.532Z,29.62
2018-06-23T13:41:46.049Z,29.75
2018-06-23T13:44:15.469Z,27.63
2018-06-23T13:46:44.900Z,25.56
2018-06-23T13:49:14.445Z,24.87
2018-06-23T13:51:44.014Z,24.29
2018-06-23T13:54:13.569Z,24.50
2018-06-23T13:56:43.094Z,25.39
2018-06-23T13:59:12.563Z,26.88
2018-06-23T14:01:41.794Z,27.66
2018-06-23T14:04:11.295Z,26.61
2018-06-23T14:06:40.758Z,27.72
2018-06-23T14:09:12.622Z,29.20
2018-06-23T14:11:42.052Z,31.01
2018-06-23T14:14:11.733Z,30.80
2018-06-23T14:16:41.196Z,32.20
2018-06-23T14:19:10.698Z,33.23
2018-06-23T14:21:40.295Z,33.26
2018-06-23T14:24:09.762Z,32.32
2018-06-23T14:26:39.273Z,32.42
2018-06-23T14:29:08.829Z,32.19
2018-06-23T14:31:38.590Z,32.44
2018-06-23T14:34:08.092Z,34.62
2018-06-23T14:36:37.531Z,34.18
2018-06-23T14:39:10.587Z,32.95
2018-06-23T14:41:40.016Z,33.01
2018-06-23T14:44:09.783Z,32.62
2018-06-23T14:46:39.297Z,32.19
2018-06-23T14:49:08.854Z,33.41
2018-06-23T14:51:38.318Z,32.02
2018-06-23T14:54:07.979Z,30.83
2018-06-23T14:56:37.496Z,31.83
2018-06-23T14:59:06.959Z,31.34
2018-06-23T15:01:36.425Z,29.30
2018-06-23T15:04:05.995Z,27.78
2018-06-23T15:06:35.476Z,27.58
2018-06-23T15:09:21.811Z,27.25
2018-06-23T15:12:08.169Z,28.66
2018-06-23T15:14:37.393Z,28.44
2018-06-23T15:17:06.846Z,28.14
2018-06-23T15:19:36.430Z,28.44
2018-06-23T15:22:06.082Z,27.24
2018-06-23T15:24:35.487Z,26.82
2018-06-23T15:27:05.198Z,26.65
2018-06-23T15:29:34.717Z,26.33
2018-06-23T15:32:04.226Z,25.88
2018-06-23T15:34:33.636Z,25.71
2018-06-23T15:37:03.198Z,25.21
2018-06-23T15:39:32.716Z,24.38
2018-06-23T15:42:02.154Z,24.17
2018-06-23T15:44:31.589Z,24.45
2018-06-23T15:47:01.108Z,24.66
2018-06-23T15:49:30.565Z,24.41
2018-06-23T15:51:59.987Z,25.72
2018-06-23T15:54:29.495Z,26.50
2018-06-23T15:56:59.001Z,26.55
2018-06-23T15:59:28.431Z,26.73
2018-06-23T16:01:57.883Z,26.08
2018-06-23T16:04:27.402Z,25.03
2018-06-23T16:06:56.892Z,25.04
2018-06-23T16:09:26.476Z,25.38
2018-06-23T16:11:55.902Z,25.09
2018-06-23T16:14:25.188Z,25.48
2018-06-23T16:16:54.646Z,26.19
2018-06-23T16:19:24.100Z,27.89
2018-06-23T16:21:53.647Z,28.42
2018-06-23T16:24:23.056Z,29.01
2018-06-23T16:26:52.488Z,28.78
2018-06-23T16:29:22.042Z,28.69
2018-06-23T16:31:51.564Z,28.87
2018-06-23T16:34:21.034Z,28.15
2018-06-23T16:36:50.446Z,26.46
2018-06-23T16:39:19.848Z,25.75
2018-06-23T16:41:49.486Z,25.69
2018-06-23T16:44:18.977Z,25.12
2018-06-23T16:46:48.391Z,25.19
2018-06-23T16:49:17.959Z,25.33
2018-06-23T16:51:47.406Z,25.06
2018-06-23T16:54:16.897Z,25.20
2018-06-23T16:56:46.420Z,24.80
2018-06-23T16:59:15.974Z,24.51
2018-06-23T17:01:45.535Z,24.23
2018-06-23T17:04:15.041Z,23.77
2018-06-23T17:06:44.557Z,23.81
2018-06-23T17:09:14.045Z,23.80
2018-06-23T17:11:46.039Z,24.26
2018-06-23T17:14:19.363Z,23.69
2018-06-23T17:16:50.039Z,23.64
2018-06-23T17:19:20.759Z,23.38
2018-06-23T17:21:50.227Z,23.91
2018-06-23T17:24:21.158Z,24.29
2018-06-23T17:26:51.795Z,24.51
2018-06-23T17:29:22.321Z,24.91
2018-06-23T17:31:51.818Z,24.25
2018-06-23T17:34:22.321Z,24.29
2018-06-23T17:36:53.263Z,24.51
2018-06-23T17:39:23.926Z,24.03
2018-06-23T17:41:53.749Z,23.66
2018-06-23T17:44:24.731Z,23.45
2018-06-23T17:46:55.425Z,23.20
2018-06-23T17:49:26.092Z,23.03
2018-06-23T17:51:56.680Z,22.91
2018-06-23T17:54:27.661Z,22.70
2018-06-23T17:56:58.859Z,22.58
2018-06-23T17:59:30.137Z,22.60
2018-06-23T18:02:00.561Z,22.42
2018-06-23T18:04:30.936Z,22.36
2018-06-23T18:07:01.646Z,22.14
2018-06-23T18:09:32.339Z,22.16
2018-06-23T18:12:03.185Z,22.06
2018-06-23T18:14:34.095Z,22.20
2018-06-23T18:17:04.888Z,22.07
2018-06-23T18:19:36.889Z,22.16
2018-06-23T18:22:06.598Z,22.02
2018-06-23T18:24:36.395Z,21.96
2018-06-23T18:27:05.838Z,21.96
2018-06-23T18:29:35.287Z,21.92
2018-06-23T18:32:04.851Z,21.78
2018-06-23T18:34:34.283Z,21.61
2018-06-23T18:37:03.694Z,21.78
2018-06-23T18:39:33.217Z,21.78
2018-06-23T18:42:02.672Z,21.53
2018-06-23T18:44:32.075Z,21.40
2018-06-23T18:47:01.491Z,21.32
2018-06-23T18:49:30.935Z,21.18
2018-06-23T18:52:00.397Z,21.08
2018-06-23T18:54:29.855Z,21.05
2018-06-23T18:56:59.431Z,20.98
2018-06-23T18:59:28.975Z,20.90
2018-06-23T19:01:58.381Z,20.83
2018-06-23T19:04:27.789Z,20.59
2018-06-23T19:06:57.298Z,20.67
2018-06-23T19:09:26.933Z,20.48
2018-06-23T19:11:56.301Z,20.44
2018-06-23T19:14:25.723Z,20.36
2018-06-23T19:16:55.214Z,20.43
2018-06-23T19:19:24.707Z,20.30
2018-06-23T19:21:54.130Z,20.25
2018-06-23T19:24:23.564Z,20.05
2018-06-23T19:26:53.072Z,20.01
2018-06-23T19:29:22.542Z,19.97
2018-06-23T19:31:51.963Z,19.89
2018-06-23T19:34:21.498Z,19.96
2018-06-23T19:36:51.037Z,19.85
2018-06-23T19:39:20.433Z,19.84
2018-06-23T19:41:49.857Z,19.80
2018-06-23T19:44:19.297Z,19.76
2018-06-23T19:46:48.780Z,19.71
2018-06-23T19:49:18.207Z,19.69
2018-06-23T19:51:47.689Z,19.70
2018-06-23T19:54:17.120Z,19.59
2018-06-23T19:56:46.557Z,19.56
2018-06-23T19:59:15.994Z,19.48
2018-06-23T20:01:45.585Z,19.51
2018-06-23T20:04:15.050Z,19.44
2018-06-23T20:06:44.496Z,19.49
2018-06-23T20:09:15.423Z,19.55
2018-06-23T20:11:44.975Z,19.43
2018-06-23T20:14:14.640Z,19.34
2018-06-23T20:16:44.084Z,19.31
2018-06-23T20:19:13.616Z,19.44
2018-06-23T20:21:43.083Z,19.30
2018-06-23T20:24:12.722Z,19.36
2018-06-23T20:26:42.300Z,19.40
2018-06-23T20:29:11.729Z,19.49
2018-06-23T20:31:41.269Z,19.33
2018-06-23T20:34:10.722Z,19.24
2018-06-23T20:36:40.160Z,19.28
2018-06-23T20:39:10.937Z,19.27
2018-06-23T20:41:40.889Z,19.16
2018-06-23T20:44:10.297Z,19.05
2018-06-23T20:46:39.726Z,19.19
2018-06-23T20:49:09.195Z,19.06
2018-06-23T20:51:38.762Z,19.14
2018-06-23T20:54:08.226Z,19.04
2018-06-23T20:56:37.720Z,19.08
2018-06-23T20:59:07.143Z,19.02
2018-06-23T21:01:36.691Z,18.97
2018-06-23T21:04:06.207Z,18.90
2018-06-23T21:06:35.616Z,18.88
2018-06-23T21:09:07.488Z,18.90
2018-06-23T21:11:37.253Z,18.93
2018-06-23T21:14:06.921Z,18.87
2018-06-23T21:16:36.448Z,18.92
2018-06-23T21:19:05.949Z,18.98
2018-06-23T21:21:35.470Z,18.98
2018-06-23T21:24:04.887Z,18.95
2018-06-23T21:26:34.413Z,18.84
2018-06-23T21:29:03.932Z,18.75
2018-06-23T21:31:33.443Z,18.97
2018-06-23T21:34:02.970Z,18.79
2018-06-23T21:36:32.383Z,18.88
2018-06-23T21:39:01.834Z,18.90
2018-06-23T21:41:31.392Z,18.71
2018-06-23T21:44:00.835Z,18.81
2018-06-23T21:46:30.270Z,18.91
2018-06-23T21:48:59.792Z,18.87
2018-06-23T21:51:29.312Z,18.97
2018-06-23T21:53:58.703Z,18.87
2018-06-23T21:56:28.191Z,18.76
2018-06-23T21:58:57.727Z,18.75
2018-06-23T22:01:27.307Z,18.87
2018-06-23T22:03:56.737Z,19.03
2018-06-23T22:06:27.243Z,18.87
2018-06-23T22:08:56.806Z,18.72
2018-06-23T22:11:26.439Z,18.80
2018-06-23T22:13:55.849Z,18.68
2018-06-23T22:16:25.286Z,18.60
2018-06-23T22:18:54.771Z,18.57
2018-06-23T22:21:24.222Z,18.49
2018-06-23T22:23:53.648Z,18.43
2018-06-23T22:26:23.070Z,18.51
2018-06-23T22:28:52.646Z,18.45
2018-06-23T22:31:22.072Z,18.33
2018-06-23T22:33:51.513Z,18.31
2018-06-23T22:36:21.005Z,18.21
2018-06-23T22:38:50.517Z,18.26
2018-06-23T22:41:19.937Z,18.31
2018-06-23T22:43:49.361Z,18.43
2018-06-23T22:46:19.089Z,18.34
2018-06-23T22:48:48.615Z,18.34
2018-06-23T22:51:19.273Z,18.47
2018-06-23T22:53:48.763Z,18.37
2018-06-23T22:56:18.314Z,18.36
2018-06-23T22:58:47.767Z,18.34
2018-06-23T23:01:17.732Z,18.19
2018-06-23T23:03:47.201Z,18.22
2018-06-23T23:06:16.747Z,18.22
2018-06-23T23:08:46.208Z,18.19
2018-06-23T23:11:15.677Z,18.07
2018-06-23T23:13:45.389Z,17.97
2018-06-23T23:16:14.897Z,18.07
2018-06-23T23:18:44.432Z,18.02
2018-06-23T23:21:13.885Z,18.08
2018-06-23T23:23:43.284Z,18.06
2018-06-23T23:26:12.824Z,18.12
2018-06-23T23:28:42.277Z,18.01
2018-06-23T23:31:11.791Z,18.03
2018-06-23T23:33:41.774Z,18.06
2018-06-23T23:36:11.553Z,18.06
2018-06-23T23:38:42.809Z,18.00
2018-06-23T23:41:12.501Z,18.00
2018-06-23T23:43:41.941Z,18.04
2018-06-23T23:46:11.481Z,17.98
2018-06-23T23:48:40.951Z,17.95
2018-06-23T23:51:10.388Z,17.86
2018-06-23T23:53:39.807Z,18.06
2018-06-23T23:56:09.535Z,17.91
2018-06-23T23:58:38.990Z,18.06
